QFA360 NWWW-YBBN
Flight info
| Callsign | QFA360 |
|---|---|
| Flight time | 2h 23m |
| Altitude | 34000 |
| Route | NISAS3E NISAS DCT TEBUR DCT 25S160E DCT BONEY G329 UGTUG |
| Aircraft | B738/M-SDE2E3FGHIRWXY/LB1 |
Departure
| Time | 2026-05-08 19:31 |
|---|---|
| Airport | La Tontouta International Airport (NWWW) |
Arrival
| Time | 2026-05-08 21:54 |
|---|---|
| Airport | Brisbane International Airport (YBBN) |
| Time | Latitude | Longitude | Altitude | Speed | Heading |
|---|---|---|---|---|---|
| 2026-05-08 19:23 | -22.01414 | 166.21656 | 24 ft | 0 kts | 29° |
| 2026-05-08 19:25 | -22.01412 | 166.21658 | 24 ft | 1 kts | 29° |
| 2026-05-08 19:26 | -22.01419 | 166.21653 | 28 ft | 2 kts | 20° |
| 2026-05-08 19:26 | -22.01425 | 166.21651 | 30 ft | 1 kts | 321° |
| 2026-05-08 19:26 | -22.01439 | 166.21663 | 30 ft | 4 kts | 321° |
| 2026-05-08 19:26 | -22.01469 | 166.21689 | 29 ft | 7 kts | 321° |
| 2026-05-08 19:27 | -22.01514 | 166.21728 | 28 ft | 10 kts | 321° |
| 2026-05-08 19:27 | -22.01573 | 166.21780 | 29 ft | 12 kts | 321° |
| 2026-05-08 19:27 | -22.01608 | 166.21810 | 31 ft | 2 kts | 321° |
| 2026-05-08 19:27 | -22.01567 | 166.21755 | 28 ft | 11 kts | 301° |
| 2026-05-08 19:28 | -22.01550 | 166.21679 | 25 ft | 11 kts | 242° |
| 2026-05-08 19:28 | -22.01609 | 166.21629 | 26 ft | 11 kts | 222° |
| 2026-05-08 19:28 | -22.01593 | 166.21555 | 29 ft | 13 kts | 301° |
| 2026-05-08 19:28 | -22.01497 | 166.21385 | 25 ft | 39 kts | 301° |
| 2026-05-08 19:29 | -22.01329 | 166.21082 | 21 ft | 49 kts | 301° |
| 2026-05-08 19:29 | -22.01161 | 166.20782 | 22 ft | 45 kts | 301° |
| 2026-05-08 19:29 | -22.01003 | 166.20503 | 17 ft | 42 kts | 301° |
| 2026-05-08 19:29 | -22.00855 | 166.20242 | 14 ft | 40 kts | 300° |
| 2026-05-08 19:30 | -22.00721 | 166.20029 | 13 ft | 17 kts | 326° |
| 2026-05-08 19:30 | -22.00710 | 166.19995 | 12 ft | 2 kts | 180° |
| 2026-05-08 19:30 | -22.00781 | 166.20112 | 13 ft | 55 kts | 121° |
| 2026-05-08 19:30 | -22.01132 | 166.20736 | 22 ft | 137 kts | 121° |
| 2026-05-08 19:31 | -22.01724 | 166.21787 | 318 ft | 183 kts | 122° |
| 2026-05-08 19:31 | -22.02441 | 166.23045 | 1048 ft | 206 kts | 122° |
| 2026-05-08 19:31 | -22.03212 | 166.24388 | 1704 ft | 214 kts | 122° |
| 2026-05-08 19:31 | -22.04068 | 166.25796 | 1971 ft | 237 kts | 131° |
| 2026-05-08 19:32 | -22.05422 | 166.26887 | 2367 ft | 249 kts | 154° |
| 2026-05-08 19:32 | -22.07087 | 166.27436 | 2789 ft | 260 kts | 175° |
| 2026-05-08 19:32 | -22.08923 | 166.27283 | 3252 ft | 272 kts | 197° |
| 2026-05-08 19:32 | -22.10593 | 166.26312 | 4000 ft | 275 kts | 222° |
| 2026-05-08 19:33 | -22.11742 | 166.24679 | 4913 ft | 277 kts | 245° |
| 2026-05-08 19:33 | -22.12231 | 166.22652 | 5681 ft | 284 kts | 266° |
| 2026-05-08 19:33 | -22.12237 | 166.20520 | 6539 ft | 285 kts | 270° |
| 2026-05-08 19:33 | -22.12197 | 166.18371 | 7334 ft | 287 kts | 270° |
| 2026-05-08 19:34 | -22.12142 | 166.16197 | 8007 ft | 297 kts | 271° |
| 2026-05-08 19:34 | -22.12080 | 166.13879 | 8224 ft | 320 kts | 271° |
| 2026-05-08 19:34 | -22.12014 | 166.11447 | 8828 ft | 328 kts | 271° |
| 2026-05-08 19:34 | -22.11946 | 166.08972 | 9606 ft | 330 kts | 271° |
| 2026-05-08 19:35 | -22.11879 | 166.06492 | 10343 ft | 331 kts | 271° |
| 2026-05-08 19:35 | -22.11813 | 166.03998 | 11029 ft | 334 kts | 271° |
| 2026-05-08 19:35 | -22.11745 | 166.01487 | 11709 ft | 336 kts | 272° |
| 2026-05-08 19:35 | -22.11702 | 165.98958 | 12372 ft | 338 kts | 268° |
| 2026-05-08 19:36 | -22.12180 | 165.96467 | 12994 ft | 344 kts | 250° |
| 2026-05-08 19:36 | -22.13195 | 165.94120 | 13641 ft | 347 kts | 245° |
| 2026-05-08 19:36 | -22.14303 | 165.91786 | 14189 ft | 351 kts | 245° |
| 2026-05-08 19:36 | -22.15429 | 165.89439 | 14741 ft | 353 kts | 245° |
| 2026-05-08 19:37 | -22.16545 | 165.87110 | 15343 ft | 354 kts | 245° |
| 2026-05-08 19:37 | -22.17669 | 165.84752 | 15994 ft | 353 kts | 246° |
| 2026-05-08 19:37 | -22.18793 | 165.82385 | 16557 ft | 356 kts | 246° |
| 2026-05-08 19:37 | -22.19922 | 165.79992 | 17093 ft | 359 kts | 246° |
| 2026-05-08 19:38 | -22.21057 | 165.77582 | 17645 ft | 361 kts | 246° |
| 2026-05-08 19:38 | -22.22199 | 165.75150 | 18188 ft | 364 kts | 246° |
| 2026-05-08 19:38 | -22.23349 | 165.72700 | 18676 ft | 366 kts | 246° |
| 2026-05-08 19:38 | -22.24504 | 165.70236 | 19169 ft | 367 kts | 247° |
| 2026-05-08 19:39 | -22.25268 | 165.68604 | 19494 ft | 369 kts | 247° |
| 2026-05-08 19:39 | -22.26807 | 165.65317 | 20133 ft | 371 kts | 247° |
| 2026-05-08 19:39 | -22.27977 | 165.62815 | 20608 ft | 373 kts | 247° |
| 2026-05-08 19:39 | -22.29149 | 165.60309 | 21085 ft | 375 kts | 247° |
| 2026-05-08 19:40 | -22.30329 | 165.57785 | 21555 ft | 377 kts | 247° |
| 2026-05-08 19:40 | -22.31111 | 165.56109 | 21860 ft | 378 kts | 247° |
| 2026-05-08 19:40 | -22.32297 | 165.53569 | 22325 ft | 380 kts | 247° |
| 2026-05-08 19:40 | -22.33496 | 165.51001 | 22771 ft | 382 kts | 247° |
| 2026-05-08 19:41 | -22.34698 | 165.48422 | 23220 ft | 384 kts | 248° |
| 2026-05-08 19:41 | -22.35890 | 165.45867 | 23647 ft | 386 kts | 248° |
| 2026-05-08 19:41 | -22.37103 | 165.43264 | 24033 ft | 387 kts | 248° |
| 2026-05-08 19:41 | -22.38314 | 165.40664 | 24436 ft | 388 kts | 248° |
| 2026-05-08 19:42 | -22.39527 | 165.38060 | 24839 ft | 388 kts | 248° |
| 2026-05-08 19:42 | -22.40740 | 165.35453 | 25225 ft | 389 kts | 248° |
| 2026-05-08 19:42 | -22.41957 | 165.32837 | 25616 ft | 390 kts | 248° |
| 2026-05-08 19:42 | -22.43175 | 165.30217 | 26021 ft | 390 kts | 248° |
| 2026-05-08 19:43 | -22.44395 | 165.27591 | 26477 ft | 388 kts | 248° |
| 2026-05-08 19:43 | -22.45589 | 165.25024 | 27005 ft | 385 kts | 248° |
| 2026-05-08 19:43 | -22.46782 | 165.22455 | 27596 ft | 380 kts | 248° |
| 2026-05-08 19:43 | -22.47962 | 165.19915 | 28140 ft | 377 kts | 248° |
| 2026-05-08 19:44 | -22.49137 | 165.17380 | 28656 ft | 374 kts | 249° |
| 2026-05-08 19:44 | -22.50300 | 165.14869 | 29170 ft | 372 kts | 249° |
| 2026-05-08 19:44 | -22.51453 | 165.12380 | 29714 ft | 369 kts | 249° |
| 2026-05-08 19:44 | -22.52597 | 165.09909 | 30236 ft | 365 kts | 249° |
| 2026-05-08 19:45 | -22.53730 | 165.07460 | 30688 ft | 362 kts | 249° |
| 2026-05-08 19:45 | -22.54853 | 165.05033 | 31136 ft | 359 kts | 249° |
| 2026-05-08 19:45 | -22.55966 | 165.02624 | 31578 ft | 356 kts | 249° |
| 2026-05-08 19:45 | -22.57069 | 165.00237 | 31981 ft | 354 kts | 249° |
| 2026-05-08 19:46 | -22.58166 | 164.97859 | 32383 ft | 351 kts | 249° |
| 2026-05-08 19:46 | -22.59254 | 164.95501 | 32787 ft | 349 kts | 249° |
| 2026-05-08 19:46 | -22.61390 | 164.90869 | 33567 ft | 344 kts | 249° |
| 2026-05-08 19:47 | -22.62457 | 164.88554 | 33940 ft | 342 kts | 249° |
| 2026-05-08 19:47 | -22.63526 | 164.86231 | 34011 ft | 346 kts | 249° |
| 2026-05-08 19:47 | -22.65684 | 164.81537 | 34040 ft | 347 kts | 249° |
| 2026-05-08 19:48 | -22.67801 | 164.76940 | 34040 ft | 339 kts | 249° |
| 2026-05-08 19:48 | -22.69900 | 164.72370 | 34045 ft | 340 kts | 249° |
| 2026-05-08 19:49 | -22.72004 | 164.67785 | 34035 ft | 340 kts | 249° |
| 2026-05-08 19:49 | -22.74110 | 164.63191 | 34052 ft | 340 kts | 249° |
| 2026-05-08 19:50 | -22.76221 | 164.58583 | 34052 ft | 340 kts | 249° |
| 2026-05-08 19:50 | -22.78314 | 164.54011 | 34041 ft | 340 kts | 249° |
| 2026-05-08 19:51 | -22.80421 | 164.49405 | 34043 ft | 341 kts | 249° |
| 2026-05-08 19:51 | -22.82523 | 164.44803 | 34041 ft | 341 kts | 249° |
| 2026-05-08 19:52 | -22.84627 | 164.40193 | 34044 ft | 341 kts | 249° |
| 2026-05-08 19:52 | -22.86717 | 164.35610 | 34049 ft | 341 kts | 250° |
| 2026-05-08 19:53 | -22.88817 | 164.31001 | 34052 ft | 341 kts | 249° |
| 2026-05-08 19:53 | -22.90916 | 164.26388 | 34049 ft | 340 kts | 250° |
| 2026-05-08 19:54 | -22.93007 | 164.21766 | 34046 ft | 340 kts | 250° |
| 2026-05-08 19:54 | -22.95083 | 164.17169 | 34074 ft | 340 kts | 250° |
| 2026-05-08 19:55 | -22.97165 | 164.12551 | 34056 ft | 340 kts | 250° |
| 2026-05-08 19:55 | -22.99243 | 164.07942 | 34046 ft | 339 kts | 250° |
| 2026-05-08 19:56 | -23.01315 | 164.03344 | 34046 ft | 338 kts | 250° |
| 2026-05-08 19:56 | -23.03375 | 163.98764 | 34054 ft | 337 kts | 250° |
| 2026-05-08 19:57 | -23.05416 | 163.94224 | 34045 ft | 336 kts | 250° |
| 2026-05-08 19:57 | -23.07462 | 163.89669 | 34047 ft | 335 kts | 250° |
| 2026-05-08 19:58 | -23.09497 | 163.85131 | 34048 ft | 334 kts | 250° |
| 2026-05-08 19:58 | -23.11531 | 163.80594 | 34048 ft | 333 kts | 250° |
| 2026-05-08 19:59 | -23.13560 | 163.76063 | 34047 ft | 333 kts | 250° |
| 2026-05-08 19:59 | -23.15591 | 163.71523 | 34048 ft | 334 kts | 250° |
| 2026-05-08 20:00 | -23.17612 | 163.67000 | 34051 ft | 334 kts | 250° |
| 2026-05-08 20:00 | -23.19648 | 163.62441 | 34050 ft | 335 kts | 250° |
| 2026-05-08 20:01 | -23.21685 | 163.57876 | 34058 ft | 336 kts | 250° |
| 2026-05-08 20:01 | -23.23714 | 163.53321 | 34045 ft | 336 kts | 250° |
| 2026-05-08 20:02 | -23.25754 | 163.48742 | 34048 ft | 336 kts | 250° |
| 2026-05-08 20:02 | -23.27788 | 163.44170 | 34049 ft | 335 kts | 250° |
| 2026-05-08 20:03 | -23.29815 | 163.39608 | 34049 ft | 334 kts | 250° |
| 2026-05-08 20:03 | -23.31838 | 163.35053 | 34050 ft | 334 kts | 250° |
| 2026-05-08 20:04 | -23.33848 | 163.30522 | 34048 ft | 333 kts | 250° |
| 2026-05-08 20:04 | -23.35860 | 163.25982 | 34053 ft | 332 kts | 250° |
| 2026-05-08 20:05 | -23.37864 | 163.21454 | 34050 ft | 332 kts | 250° |
| 2026-05-08 20:05 | -23.39864 | 163.16931 | 34053 ft | 331 kts | 250° |
| 2026-05-08 20:06 | -23.41852 | 163.12431 | 34052 ft | 331 kts | 251° |
| 2026-05-08 20:06 | -23.43848 | 163.07910 | 34052 ft | 330 kts | 251° |
| 2026-05-08 20:07 | -23.45840 | 163.03391 | 34055 ft | 331 kts | 251° |
| 2026-05-08 20:07 | -23.47994 | 162.98945 | 34046 ft | 337 kts | 243° |
| 2026-05-08 20:08 | -23.50714 | 162.94795 | 34042 ft | 338 kts | 243° |
| 2026-05-08 20:08 | -23.53465 | 162.90639 | 34061 ft | 338 kts | 243° |
| 2026-05-08 20:09 | -23.56207 | 162.86481 | 34055 ft | 338 kts | 243° |
| 2026-05-08 20:09 | -23.58943 | 162.82317 | 34057 ft | 338 kts | 243° |
| 2026-05-08 20:10 | -23.61678 | 162.78144 | 34054 ft | 338 kts | 243° |
| 2026-05-08 20:10 | -23.64399 | 162.73987 | 34059 ft | 339 kts | 243° |
| 2026-05-08 20:11 | -23.67137 | 162.69801 | 34051 ft | 339 kts | 243° |
| 2026-05-08 20:11 | -23.69881 | 162.65601 | 34055 ft | 339 kts | 243° |
| 2026-05-08 20:12 | -23.72651 | 162.61352 | 34068 ft | 348 kts | 243° |
| 2026-05-08 20:12 | -23.75487 | 162.56995 | 34071 ft | 358 kts | 243° |
| 2026-05-08 20:13 | -23.78417 | 162.52493 | 34075 ft | 369 kts | 242° |
| 2026-05-08 20:13 | -23.81429 | 162.47866 | 34074 ft | 378 kts | 242° |
| 2026-05-08 20:14 | -23.84512 | 162.43130 | 34071 ft | 386 kts | 242° |
| 2026-05-08 20:14 | -23.87637 | 162.38323 | 34070 ft | 394 kts | 242° |
| 2026-05-08 20:15 | -23.90843 | 162.33390 | 34060 ft | 396 kts | 242° |
| 2026-05-08 20:15 | -23.94022 | 162.28496 | 34057 ft | 397 kts | 242° |
| 2026-05-08 20:16 | -23.97230 | 162.23549 | 34080 ft | 398 kts | 242° |
| 2026-05-08 20:16 | -24.00424 | 162.18618 | 34072 ft | 396 kts | 242° |
| 2026-05-08 20:17 | -24.03583 | 162.13734 | 34065 ft | 395 kts | 242° |
| 2026-05-08 20:17 | -24.06757 | 162.08822 | 34071 ft | 394 kts | 242° |
| 2026-05-08 20:18 | -24.09920 | 162.03920 | 34074 ft | 393 kts | 242° |
| 2026-05-08 20:18 | -24.13069 | 161.99037 | 34074 ft | 392 kts | 243° |
| 2026-05-08 20:19 | -24.16215 | 161.94152 | 34072 ft | 392 kts | 243° |
| 2026-05-08 20:19 | -24.19356 | 161.89271 | 34072 ft | 392 kts | 243° |
| 2026-05-08 20:20 | -24.22481 | 161.84410 | 34106 ft | 391 kts | 243° |
| 2026-05-08 20:20 | -24.25615 | 161.79531 | 34085 ft | 391 kts | 243° |
| 2026-05-08 20:21 | -24.28218 | 161.75474 | 34085 ft | 390 kts | 243° |
| 2026-05-08 20:21 | -24.31338 | 161.70607 | 34081 ft | 390 kts | 243° |
| 2026-05-08 20:22 | -24.34456 | 161.65739 | 34083 ft | 389 kts | 243° |
| 2026-05-08 20:22 | -24.37571 | 161.60869 | 34082 ft | 389 kts | 243° |
| 2026-05-08 20:23 | -24.40659 | 161.56037 | 34073 ft | 389 kts | 243° |
| 2026-05-08 20:23 | -24.43772 | 161.51163 | 34088 ft | 389 kts | 243° |
| 2026-05-08 20:24 | -24.46879 | 161.46291 | 34087 ft | 389 kts | 243° |
| 2026-05-08 20:24 | -24.49963 | 161.41453 | 34099 ft | 389 kts | 243° |
| 2026-05-08 20:25 | -24.53068 | 161.36576 | 34086 ft | 388 kts | 243° |
| 2026-05-08 20:25 | -24.56157 | 161.31720 | 34088 ft | 387 kts | 243° |
| 2026-05-08 20:26 | -24.59239 | 161.26869 | 34097 ft | 387 kts | 243° |
| 2026-05-08 20:26 | -24.62322 | 161.22011 | 34089 ft | 386 kts | 243° |
| 2026-05-08 20:27 | -24.65376 | 161.17195 | 34092 ft | 386 kts | 243° |
| 2026-05-08 20:27 | -24.68454 | 161.12336 | 34099 ft | 386 kts | 243° |
| 2026-05-08 20:28 | -24.71507 | 161.07511 | 34101 ft | 386 kts | 243° |
| 2026-05-08 20:28 | -24.74577 | 161.02656 | 34109 ft | 385 kts | 244° |
| 2026-05-08 20:29 | -24.77636 | 160.97814 | 34102 ft | 384 kts | 244° |
| 2026-05-08 20:29 | -24.80677 | 160.92995 | 34104 ft | 382 kts | 244° |
| 2026-05-08 20:30 | -24.83697 | 160.88203 | 34106 ft | 382 kts | 244° |
| 2026-05-08 20:30 | -24.86721 | 160.83401 | 34111 ft | 381 kts | 244° |
| 2026-05-08 20:31 | -24.89738 | 160.78604 | 34110 ft | 381 kts | 244° |
| 2026-05-08 20:31 | -24.92741 | 160.73824 | 34116 ft | 380 kts | 244° |
| 2026-05-08 20:32 | -24.95756 | 160.69021 | 34113 ft | 381 kts | 244° |
| 2026-05-08 20:32 | -24.98775 | 160.64208 | 34124 ft | 381 kts | 244° |
| 2026-05-08 20:33 | -25.01789 | 160.59398 | 34122 ft | 380 kts | 244° |
| 2026-05-08 20:33 | -25.04779 | 160.54622 | 34113 ft | 380 kts | 244° |
| 2026-05-08 20:34 | -25.07776 | 160.49829 | 34110 ft | 379 kts | 244° |
| 2026-05-08 20:35 | -25.12265 | 160.42641 | 34117 ft | 378 kts | 244° |
| 2026-05-08 20:35 | -25.15249 | 160.37856 | 34122 ft | 378 kts | 244° |
| 2026-05-08 20:36 | -25.18214 | 160.33099 | 34130 ft | 377 kts | 244° |
| 2026-05-08 20:36 | -25.21193 | 160.28313 | 34168 ft | 377 kts | 244° |
| 2026-05-08 20:37 | -25.24160 | 160.23542 | 34138 ft | 377 kts | 244° |
| 2026-05-08 20:37 | -25.27128 | 160.18764 | 34124 ft | 377 kts | 244° |
| 2026-05-08 20:38 | -25.30091 | 160.13990 | 34132 ft | 376 kts | 244° |
| 2026-05-08 20:38 | -25.33051 | 160.09215 | 34128 ft | 376 kts | 244° |
| 2026-05-08 20:39 | -25.35991 | 160.04469 | 34129 ft | 375 kts | 244° |
| 2026-05-08 20:39 | -25.38945 | 159.99695 | 34132 ft | 375 kts | 244° |
| 2026-05-08 20:40 | -25.41890 | 159.94930 | 34132 ft | 375 kts | 244° |
| 2026-05-08 20:40 | -25.44827 | 159.90172 | 34181 ft | 375 kts | 244° |
| 2026-05-08 20:41 | -25.47775 | 159.85393 | 34134 ft | 375 kts | 244° |
| 2026-05-08 20:41 | -25.50713 | 159.80626 | 34134 ft | 375 kts | 244° |
| 2026-05-08 20:42 | -25.53653 | 159.75852 | 34136 ft | 374 kts | 244° |
| 2026-05-08 20:42 | -25.56584 | 159.71085 | 34137 ft | 374 kts | 244° |
| 2026-05-08 20:43 | -25.59517 | 159.66311 | 34141 ft | 374 kts | 244° |
| 2026-05-08 20:43 | -25.62426 | 159.61571 | 34144 ft | 374 kts | 244° |
| 2026-05-08 20:44 | -25.65356 | 159.56793 | 34144 ft | 374 kts | 244° |
| 2026-05-08 20:44 | -25.68281 | 159.52017 | 34186 ft | 374 kts | 244° |
| 2026-05-08 20:45 | -25.71218 | 159.47215 | 34156 ft | 375 kts | 244° |
| 2026-05-08 20:45 | -25.74140 | 159.42436 | 34148 ft | 374 kts | 244° |
| 2026-05-08 20:46 | -25.77044 | 159.37681 | 34152 ft | 374 kts | 244° |
| 2026-05-08 20:46 | -25.79965 | 159.32893 | 34152 ft | 374 kts | 244° |
| 2026-05-08 20:47 | -25.82884 | 159.28102 | 34152 ft | 374 kts | 244° |
| 2026-05-08 20:47 | -25.85794 | 159.23321 | 34153 ft | 373 kts | 244° |
| 2026-05-08 20:48 | -25.88686 | 159.18565 | 34154 ft | 373 kts | 244° |
| 2026-05-08 20:48 | -25.91591 | 159.13783 | 34190 ft | 373 kts | 244° |
| 2026-05-08 20:49 | -25.94503 | 159.08985 | 34168 ft | 373 kts | 244° |
| 2026-05-08 20:49 | -25.97406 | 159.04197 | 34155 ft | 373 kts | 244° |
| 2026-05-08 20:50 | -26.00306 | 158.99409 | 34156 ft | 373 kts | 244° |
| 2026-05-08 20:50 | -26.03181 | 158.94655 | 34155 ft | 372 kts | 244° |
| 2026-05-08 20:51 | -26.06071 | 158.89873 | 34156 ft | 372 kts | 244° |
| 2026-05-08 20:51 | -26.08955 | 158.85097 | 34158 ft | 372 kts | 244° |
| 2026-05-08 20:52 | -26.11845 | 158.80304 | 34162 ft | 372 kts | 244° |
| 2026-05-08 20:52 | -26.14726 | 158.75523 | 34162 ft | 372 kts | 244° |
| 2026-05-08 20:53 | -26.17592 | 158.70760 | 34164 ft | 372 kts | 244° |
| 2026-05-08 20:53 | -26.20474 | 158.65967 | 34162 ft | 372 kts | 245° |
| 2026-05-08 20:54 | -26.23352 | 158.61175 | 34162 ft | 372 kts | 245° |
| 2026-05-08 20:54 | -26.26232 | 158.56373 | 34161 ft | 372 kts | 245° |
| 2026-05-08 20:55 | -26.29110 | 158.51572 | 34162 ft | 372 kts | 245° |
| 2026-05-08 20:55 | -26.31973 | 158.46790 | 34162 ft | 373 kts | 245° |
| 2026-05-08 20:56 | -26.34854 | 158.41972 | 34164 ft | 373 kts | 245° |
| 2026-05-08 20:56 | -26.37720 | 158.37176 | 34190 ft | 373 kts | 245° |
| 2026-05-08 20:57 | -26.40606 | 158.32339 | 34173 ft | 373 kts | 245° |
| 2026-05-08 20:57 | -26.43473 | 158.27530 | 34167 ft | 373 kts | 245° |
| 2026-05-08 20:58 | -26.46351 | 158.22697 | 34170 ft | 373 kts | 245° |
| 2026-05-08 20:58 | -26.49211 | 158.17890 | 34153 ft | 373 kts | 245° |
| 2026-05-08 20:59 | -26.52086 | 158.13052 | 34163 ft | 373 kts | 245° |
| 2026-05-08 20:59 | -26.54961 | 158.08210 | 34164 ft | 373 kts | 245° |
| 2026-05-08 21:00 | -26.57834 | 158.03365 | 34165 ft | 373 kts | 245° |
| 2026-05-08 21:00 | -26.60688 | 157.98548 | 34201 ft | 374 kts | 245° |
| 2026-05-08 21:01 | -26.63561 | 157.93690 | 34174 ft | 374 kts | 245° |
| 2026-05-08 21:01 | -26.66432 | 157.88833 | 34164 ft | 375 kts | 245° |
| 2026-05-08 21:02 | -26.68821 | 157.84789 | 34157 ft | 374 kts | 245° |
| 2026-05-08 21:02 | -26.71686 | 157.79934 | 34164 ft | 374 kts | 245° |
| 2026-05-08 21:03 | -26.74554 | 157.75067 | 34165 ft | 374 kts | 245° |
| 2026-05-08 21:03 | -26.77417 | 157.70203 | 34164 ft | 374 kts | 245° |
| 2026-05-08 21:04 | -26.80259 | 157.65369 | 34160 ft | 373 kts | 245° |
| 2026-05-08 21:04 | -26.83115 | 157.60507 | 34186 ft | 374 kts | 245° |
| 2026-05-08 21:05 | -26.85994 | 157.55599 | 34169 ft | 375 kts | 245° |
| 2026-05-08 21:05 | -26.88839 | 157.50746 | 34163 ft | 375 kts | 245° |
| 2026-05-08 21:06 | -26.91718 | 157.45828 | 34164 ft | 375 kts | 245° |
| 2026-05-08 21:06 | -26.94559 | 157.40970 | 34170 ft | 375 kts | 245° |
| 2026-05-08 21:07 | -26.97422 | 157.36068 | 34172 ft | 375 kts | 245° |
| 2026-05-08 21:07 | -27.00281 | 157.31170 | 34166 ft | 375 kts | 245° |
| 2026-05-08 21:08 | -27.03144 | 157.26258 | 34172 ft | 376 kts | 245° |
| 2026-05-08 21:08 | -27.06011 | 157.21334 | 34164 ft | 377 kts | 245° |
| 2026-05-08 21:09 | -27.08875 | 157.16409 | 34172 ft | 377 kts | 245° |
| 2026-05-08 21:09 | -27.11726 | 157.11502 | 34173 ft | 378 kts | 245° |
| 2026-05-08 21:10 | -27.14594 | 157.06559 | 34175 ft | 378 kts | 245° |
| 2026-05-08 21:10 | -27.17472 | 157.01594 | 34175 ft | 378 kts | 245° |
| 2026-05-08 21:11 | -27.20345 | 156.96634 | 34172 ft | 378 kts | 245° |
| 2026-05-08 21:11 | -27.23197 | 156.91703 | 34176 ft | 378 kts | 245° |
| 2026-05-08 21:12 | -27.26063 | 156.86742 | 34191 ft | 379 kts | 245° |
| 2026-05-08 21:12 | -27.28943 | 156.81749 | 34177 ft | 380 kts | 245° |
| 2026-05-08 21:13 | -27.31800 | 156.76793 | 34190 ft | 380 kts | 245° |
| 2026-05-08 21:13 | -27.34681 | 156.71790 | 34183 ft | 381 kts | 245° |
| 2026-05-08 21:14 | -27.37568 | 156.66770 | 34174 ft | 381 kts | 245° |
| 2026-05-08 21:14 | -27.40447 | 156.61758 | 34173 ft | 381 kts | 245° |
| 2026-05-08 21:15 | -27.43311 | 156.56766 | 34167 ft | 381 kts | 245° |
| 2026-05-08 21:15 | -27.46187 | 156.51749 | 34181 ft | 381 kts | 245° |
| 2026-05-08 21:16 | -27.49067 | 156.46717 | 34189 ft | 382 kts | 245° |
| 2026-05-08 21:16 | -27.51949 | 156.41677 | 34179 ft | 383 kts | 245° |
| 2026-05-08 21:17 | -27.54836 | 156.36624 | 34180 ft | 383 kts | 245° |
| 2026-05-08 21:17 | -27.57719 | 156.31570 | 34181 ft | 383 kts | 245° |
| 2026-05-08 21:18 | -27.60580 | 156.26548 | 34179 ft | 383 kts | 245° |
| 2026-05-08 21:18 | -27.63460 | 156.21488 | 34174 ft | 383 kts | 245° |
| 2026-05-08 21:19 | -27.66339 | 156.16424 | 34182 ft | 383 kts | 245° |
| 2026-05-08 21:19 | -27.69216 | 156.11357 | 34188 ft | 384 kts | 245° |
| 2026-05-08 21:20 | -27.72081 | 156.06304 | 34181 ft | 384 kts | 245° |
| 2026-05-08 21:20 | -27.74955 | 156.01232 | 34184 ft | 384 kts | 245° |
| 2026-05-08 21:21 | -27.77832 | 155.96148 | 34190 ft | 383 kts | 245° |
| 2026-05-08 21:21 | -27.79003 | 155.93493 | 34179 ft | 373 kts | 257° |
| 2026-05-08 21:21 | -27.79638 | 155.90675 | 34180 ft | 369 kts | 263° |
| 2026-05-08 21:22 | -27.79988 | 155.84936 | 34177 ft | 366 kts | 277° |
| 2026-05-08 21:22 | -27.79155 | 155.79293 | 34197 ft | 366 kts | 279° |
| 2026-05-08 21:23 | -27.78272 | 155.73614 | 34194 ft | 367 kts | 279° |
| 2026-05-08 21:23 | -27.77398 | 155.67924 | 34193 ft | 367 kts | 278° |
| 2026-05-08 21:24 | -27.76538 | 155.62270 | 34193 ft | 367 kts | 278° |
| 2026-05-08 21:24 | -27.75672 | 155.56566 | 34194 ft | 368 kts | 278° |
| 2026-05-08 21:25 | -27.74806 | 155.50867 | 34191 ft | 368 kts | 278° |
| 2026-05-08 21:25 | -27.73942 | 155.45196 | 34197 ft | 368 kts | 278° |
| 2026-05-08 21:26 | -27.73070 | 155.39492 | 34200 ft | 368 kts | 278° |
| 2026-05-08 21:26 | -27.72195 | 155.33780 | 34199 ft | 368 kts | 279° |
| 2026-05-08 21:27 | -27.71324 | 155.28115 | 34199 ft | 368 kts | 279° |
| 2026-05-08 21:27 | -27.70449 | 155.22437 | 34202 ft | 367 kts | 279° |
| 2026-05-08 21:28 | -27.69570 | 155.16753 | 34201 ft | 366 kts | 279° |
| 2026-05-08 21:28 | -27.69133 | 155.13925 | 33874 ft | 364 kts | 279° |
| 2026-05-08 21:28 | -27.68702 | 155.11151 | 33479 ft | 357 kts | 279° |
| 2026-05-08 21:28 | -27.68278 | 155.08422 | 33094 ft | 350 kts | 279° |
| 2026-05-08 21:29 | -27.67857 | 155.05715 | 32631 ft | 347 kts | 279° |
| 2026-05-08 21:29 | -27.67442 | 155.03047 | 32189 ft | 344 kts | 279° |
| 2026-05-08 21:29 | -27.67030 | 155.00404 | 31755 ft | 341 kts | 279° |
| 2026-05-08 21:29 | -27.66620 | 154.97780 | 31322 ft | 338 kts | 279° |
| 2026-05-08 21:30 | -27.66218 | 154.95204 | 30895 ft | 335 kts | 279° |
| 2026-05-08 21:30 | -27.65814 | 154.92622 | 30463 ft | 336 kts | 279° |
| 2026-05-08 21:30 | -27.65401 | 154.89986 | 29981 ft | 347 kts | 279° |
| 2026-05-08 21:30 | -27.64976 | 154.87274 | 29482 ft | 352 kts | 279° |
| 2026-05-08 21:31 | -27.64549 | 154.84561 | 28979 ft | 349 kts | 279° |
| 2026-05-08 21:31 | -27.64128 | 154.81883 | 28506 ft | 345 kts | 279° |
| 2026-05-08 21:31 | -27.63710 | 154.79230 | 28042 ft | 342 kts | 279° |
| 2026-05-08 21:31 | -27.63295 | 154.76600 | 27591 ft | 339 kts | 279° |
| 2026-05-08 21:32 | -27.62881 | 154.73982 | 27139 ft | 337 kts | 279° |
| 2026-05-08 21:32 | -27.62471 | 154.71388 | 26695 ft | 335 kts | 279° |
| 2026-05-08 21:32 | -27.62061 | 154.68799 | 26241 ft | 335 kts | 278° |
| 2026-05-08 21:32 | -27.61651 | 154.66214 | 25781 ft | 334 kts | 278° |
| 2026-05-08 21:33 | -27.61242 | 154.63633 | 25323 ft | 337 kts | 278° |
| 2026-05-08 21:33 | -27.60829 | 154.61030 | 24881 ft | 345 kts | 278° |
| 2026-05-08 21:33 | -27.60398 | 154.58314 | 24407 ft | 349 kts | 278° |
| 2026-05-08 21:33 | -27.59975 | 154.55659 | 23949 ft | 349 kts | 278° |
| 2026-05-08 21:34 | -27.59544 | 154.52964 | 23424 ft | 349 kts | 278° |
| 2026-05-08 21:34 | -27.59115 | 154.50277 | 22938 ft | 347 kts | 278° |
| 2026-05-08 21:34 | -27.58688 | 154.47609 | 22477 ft | 344 kts | 278° |
| 2026-05-08 21:34 | -27.58263 | 154.44959 | 22023 ft | 342 kts | 278° |
| 2026-05-08 21:35 | -27.57841 | 154.42324 | 21575 ft | 341 kts | 278° |
| 2026-05-08 21:35 | -27.57419 | 154.39696 | 21116 ft | 339 kts | 278° |
| 2026-05-08 21:35 | -27.56999 | 154.37081 | 20664 ft | 338 kts | 278° |
| 2026-05-08 21:35 | -27.56579 | 154.34475 | 20223 ft | 337 kts | 278° |
| 2026-05-08 21:36 | -27.56165 | 154.31903 | 19788 ft | 337 kts | 278° |
| 2026-05-08 21:36 | -27.55746 | 154.29307 | 19347 ft | 336 kts | 279° |
| 2026-05-08 21:36 | -27.55326 | 154.26702 | 18906 ft | 336 kts | 279° |
| 2026-05-08 21:36 | -27.54906 | 154.24106 | 18462 ft | 336 kts | 279° |
| 2026-05-08 21:37 | -27.54487 | 154.21516 | 17975 ft | 335 kts | 279° |
| 2026-05-08 21:37 | -27.54067 | 154.18930 | 17540 ft | 334 kts | 279° |
| 2026-05-08 21:37 | -27.53651 | 154.16367 | 17098 ft | 332 kts | 279° |
| 2026-05-08 21:37 | -27.53236 | 154.13810 | 16654 ft | 331 kts | 279° |
| 2026-05-08 21:38 | -27.52822 | 154.11260 | 16221 ft | 330 kts | 279° |
| 2026-05-08 21:38 | -27.52408 | 154.08719 | 15788 ft | 329 kts | 279° |
| 2026-05-08 21:38 | -27.51999 | 154.06215 | 15357 ft | 329 kts | 279° |
| 2026-05-08 21:38 | -27.51587 | 154.03685 | 14994 ft | 326 kts | 279° |
| 2026-05-08 21:39 | -27.51178 | 154.01185 | 14660 ft | 323 kts | 279° |
| 2026-05-08 21:39 | -27.50771 | 153.98694 | 14280 ft | 321 kts | 279° |
| 2026-05-08 21:39 | -27.50366 | 153.96218 | 13867 ft | 321 kts | 278° |
| 2026-05-08 21:39 | -27.49960 | 153.93737 | 13441 ft | 320 kts | 278° |
| 2026-05-08 21:40 | -27.49556 | 153.91271 | 13036 ft | 319 kts | 278° |
| 2026-05-08 21:40 | -27.49134 | 153.88858 | 12623 ft | 318 kts | 284° |
| 2026-05-08 21:40 | -27.48156 | 153.86607 | 12204 ft | 323 kts | 304° |
| 2026-05-08 21:41 | -27.45641 | 153.83505 | 11582 ft | 322 kts | 311° |
| 2026-05-08 21:41 | -27.44077 | 153.81697 | 11167 ft | 322 kts | 311° |
| 2026-05-08 21:41 | -27.42522 | 153.79893 | 10862 ft | 318 kts | 311° |
| 2026-05-08 21:41 | -27.40529 | 153.77562 | 10759 ft | 304 kts | 310° |
| 2026-05-08 21:42 | -27.39096 | 153.75874 | 10682 ft | 294 kts | 310° |
| 2026-05-08 21:42 | -27.38154 | 153.74762 | 10606 ft | 288 kts | 310° |
| 2026-05-08 21:42 | -27.36789 | 153.73144 | 10438 ft | 282 kts | 311° |
| 2026-05-08 21:42 | -27.35441 | 153.71547 | 10173 ft | 281 kts | 311° |
| 2026-05-08 21:43 | -27.34110 | 153.69971 | 9859 ft | 281 kts | 311° |
| 2026-05-08 21:43 | -27.32810 | 153.68329 | 9543 ft | 279 kts | 302° |
| 2026-05-08 21:43 | -27.31802 | 153.66480 | 9278 ft | 275 kts | 296° |
| 2026-05-08 21:43 | -27.30895 | 153.64585 | 8984 ft | 275 kts | 295° |
| 2026-05-08 21:44 | -27.29999 | 153.62688 | 8658 ft | 275 kts | 296° |
| 2026-05-08 21:44 | -27.29096 | 153.60800 | 8398 ft | 273 kts | 295° |
| 2026-05-08 21:44 | -27.28193 | 153.58936 | 8199 ft | 271 kts | 296° |
| 2026-05-08 21:44 | -27.27283 | 153.57074 | 8001 ft | 272 kts | 296° |
| 2026-05-08 21:45 | -27.26368 | 153.55215 | 7811 ft | 272 kts | 296° |
| 2026-05-08 21:45 | -27.25445 | 153.53346 | 7610 ft | 273 kts | 297° |
| 2026-05-08 21:45 | -27.24522 | 153.51482 | 7422 ft | 273 kts | 296° |
| 2026-05-08 21:45 | -27.23598 | 153.49620 | 7230 ft | 273 kts | 297° |
| 2026-05-08 21:46 | -27.22682 | 153.47777 | 7047 ft | 273 kts | 297° |
| 2026-05-08 21:46 | -27.21753 | 153.45911 | 6828 ft | 274 kts | 296° |
| 2026-05-08 21:46 | -27.20811 | 153.44017 | 6458 ft | 278 kts | 297° |
| 2026-05-08 21:46 | -27.19868 | 153.42129 | 6177 ft | 276 kts | 299° |
| 2026-05-08 21:47 | -27.18650 | 153.40491 | 5956 ft | 273 kts | 320° |
| 2026-05-08 21:47 | -27.17174 | 153.39171 | 5769 ft | 269 kts | 321° |
| 2026-05-08 21:47 | -27.15728 | 153.37857 | 5568 ft | 266 kts | 321° |
| 2026-05-08 21:47 | -27.14315 | 153.36546 | 5381 ft | 261 kts | 319° |
| 2026-05-08 21:48 | -27.13280 | 153.34909 | 5175 ft | 258 kts | 287° |
| 2026-05-08 21:48 | -27.13142 | 153.32957 | 5039 ft | 249 kts | 259° |
| 2026-05-08 21:48 | -27.13659 | 153.31157 | 4978 ft | 238 kts | 243° |
| 2026-05-08 21:48 | -27.14363 | 153.29499 | 4967 ft | 234 kts | 242° |
| 2026-05-08 21:49 | -27.15078 | 153.27862 | 4968 ft | 232 kts | 242° |
| 2026-05-08 21:49 | -27.15804 | 153.26245 | 4842 ft | 236 kts | 235° |
| 2026-05-08 21:49 | -27.17030 | 153.25060 | 4500 ft | 232 kts | 201° |
| 2026-05-08 21:49 | -27.18521 | 153.24336 | 4161 ft | 236 kts | 202° |
| 2026-05-08 21:50 | -27.19997 | 153.23493 | 3844 ft | 239 kts | 204° |
| 2026-05-08 21:50 | -27.21465 | 153.22637 | 3538 ft | 237 kts | 204° |
| 2026-05-08 21:50 | -27.22898 | 153.21807 | 3219 ft | 232 kts | 203° |
| 2026-05-08 21:50 | -27.24316 | 153.20992 | 2917 ft | 225 kts | 203° |
| 2026-05-08 21:51 | -27.25682 | 153.20207 | 2598 ft | 214 kts | 203° |
| 2026-05-08 21:51 | -27.26971 | 153.19467 | 2327 ft | 202 kts | 203° |
| 2026-05-08 21:51 | -27.28186 | 153.18769 | 2061 ft | 191 kts | 203° |
| 2026-05-08 21:51 | -27.29333 | 153.18111 | 1832 ft | 177 kts | 204° |
| 2026-05-08 21:52 | -27.30387 | 153.17505 | 1634 ft | 161 kts | 204° |
| 2026-05-08 21:52 | -27.31352 | 153.16952 | 1393 ft | 150 kts | 204° |
| 2026-05-08 21:52 | -27.32275 | 153.16425 | 1186 ft | 146 kts | 204° |
| 2026-05-08 21:52 | -27.33194 | 153.15902 | 969 ft | 149 kts | 206° |
| 2026-05-08 21:53 | -27.34122 | 153.15369 | 785 ft | 153 kts | 205° |
| 2026-05-08 21:53 | -27.35072 | 153.14824 | 594 ft | 152 kts | 207° |
| 2026-05-08 21:53 | -27.36011 | 153.14269 | 380 ft | 151 kts | 208° |
| 2026-05-08 21:53 | -27.36944 | 153.13724 | 183 ft | 151 kts | 206° |
| 2026-05-08 21:54 | -27.37872 | 153.13196 | 27 ft | 144 kts | 207° |
| 2026-05-08 21:54 | -27.38688 | 153.12732 | 22 ft | 116 kts | 207° |
| 2026-05-08 21:54 | -27.39299 | 153.12384 | 18 ft | 81 kts | 206° |
| 2026-05-08 21:54 | -27.39583 | 153.12184 | 19 ft | 29 kts | 253° |
| 2026-05-08 21:55 | -27.39519 | 153.11997 | 17 ft | 22 kts | 300° |
| 2026-05-08 21:55 | -27.39395 | 153.11964 | 17 ft | 21 kts | 23° |
| 2026-05-08 21:55 | -27.39268 | 153.12037 | 19 ft | 20 kts | 27° |
| 2026-05-08 21:56 | -27.39024 | 153.12179 | 17 ft | 19 kts | 27° |
| 2026-05-08 21:56 | -27.38906 | 153.12245 | 17 ft | 19 kts | 26° |
| 2026-05-08 21:56 | -27.38793 | 153.12308 | 17 ft | 18 kts | 26° |
| 2026-05-08 21:56 | -27.38683 | 153.12370 | 17 ft | 17 kts | 27° |
| 2026-05-08 21:57 | -27.38578 | 153.12431 | 17 ft | 17 kts | 27° |
| 2026-05-08 21:57 | -27.38473 | 153.12462 | 17 ft | 16 kts | 333° |
| 2026-05-08 21:57 | -27.38392 | 153.12427 | 17 ft | 9 kts | 334° |
| 2026-05-08 21:57 | -27.38329 | 153.12407 | 17 ft | 9 kts | 348° |
| 2026-05-08 21:58 | -27.38267 | 153.12392 | 17 ft | 9 kts | 347° |
| 2026-05-08 21:58 | -27.38221 | 153.12350 | 17 ft | 9 kts | 299° |
| 2026-05-08 21:58 | -27.38235 | 153.12289 | 17 ft | 8 kts | 231° |
| 2026-05-08 21:58 | -27.38254 | 153.12263 | 19 ft | 2 kts | 229° |
| 2026-05-08 21:59 | -27.38256 | 153.12261 | 18 ft | 0 kts | 229° |